createdAt,value
2024-01-07T00:00:21.475Z,99.99
2024-01-07T00:01:16.769Z,99.99
2024-01-07T00:02:16.642Z,99.99
2024-01-07T00:03:18.651Z,99.99
2024-01-07T00:04:16.669Z,99.99
2024-01-07T00:05:16.715Z,99.99
2024-01-07T00:06:16.579Z,99.99
2024-01-07T00:07:16.582Z,99.99
2024-01-07T00:08:16.573Z,99.99
2024-01-07T00:09:16.572Z,99.99
2024-01-07T00:10:16.700Z,99.99
2024-01-07T00:11:16.616Z,99.99
2024-01-07T00:12:16.539Z,99.99
2024-01-07T00:13:16.510Z,99.99
2024-01-07T00:14:16.494Z,99.99
2024-01-07T00:15:16.498Z,99.99
2024-01-07T00:16:16.497Z,99.99
2024-01-07T00:17:16.491Z,99.99
2024-01-07T00:18:16.599Z,99.99
2024-01-07T00:19:18.636Z,99.99
2024-01-07T00:20:16.446Z,99.99
2024-01-07T00:21:16.452Z,99.99
2024-01-07T00:22:16.434Z,99.99
2024-01-07T00:23:16.427Z,99.99
2024-01-07T00:24:16.445Z,99.99
2024-01-07T00:25:16.442Z,99.99
2024-01-07T00:26:16.365Z,99.99
2024-01-07T00:27:16.389Z,99.99
2024-01-07T00:28:16.345Z,99.99
2024-01-07T00:29:16.360Z,99.99
2024-01-07T00:30:16.408Z,99.99
2024-01-07T00:31:16.379Z,99.99
2024-01-07T00:32:16.299Z,99.99
2024-01-07T00:33:16.355Z,99.99
2024-01-07T00:34:16.315Z,99.99
2024-01-07T00:35:16.304Z,99.99
2024-01-07T00:36:16.249Z,99.99
2024-01-07T00:37:16.255Z,99.99
2024-01-07T00:38:18.222Z,99.99
2024-01-07T00:39:16.231Z,99.99
2024-01-07T00:40:16.246Z,99.99
2024-01-07T00:41:16.211Z,99.99
2024-01-07T00:42:16.192Z,99.99
2024-01-07T00:43:16.194Z,99.99
2024-01-07T00:44:16.204Z,99.99
2024-01-07T00:45:16.168Z,99.99
2024-01-07T00:46:16.154Z,99.99
2024-01-07T00:47:16.132Z,99.99
2024-01-07T00:48:16.194Z,99.99
2024-01-07T00:49:16.462Z,99.99
2024-01-07T00:50:16.155Z,99.99
2024-01-07T00:51:16.088Z,99.99
2024-01-07T00:52:16.062Z,99.99
2024-01-07T00:53:16.190Z,99.99
2024-01-07T00:54:16.063Z,99.99
2024-01-07T00:55:16.114Z,99.99
2024-01-07T00:56:16.016Z,99.99
2024-01-07T00:57:16.040Z,99.99
2024-01-07T00:58:17.340Z,99.94
2024-01-07T00:59:16.981Z,99.94
2024-01-07T01:00:15.997Z,99.94
2024-01-07T01:01:16.068Z,99.99
2024-01-07T01:02:15.994Z,99.99
2024-01-07T01:03:16.014Z,99.99
2024-01-07T01:04:16.016Z,99.99
2024-01-07T01:05:16.026Z,99.99
2024-01-07T01:06:15.982Z,99.99
2024-01-07T01:07:15.973Z,99.99
2024-01-07T01:08:15.896Z,99.99
2024-01-07T01:09:15.934Z,99.99
2024-01-07T01:10:15.894Z,99.99
2024-01-07T01:11:15.892Z,99.99
2024-01-07T01:12:15.876Z,99.99
2024-01-07T01:13:15.847Z,99.99
2024-01-07T01:14:15.830Z,99.94
2024-01-07T01:15:15.803Z,99.94
2024-01-07T01:16:15.827Z,99.94
2024-01-07T01:17:15.821Z,99.84
2024-01-07T01:18:15.920Z,99.84
2024-01-07T01:19:15.866Z,99.84
2024-01-07T01:20:15.746Z,99.84
2024-01-07T01:21:17.229Z,99.73
2024-01-07T01:22:15.787Z,99.73
2024-01-07T01:23:15.745Z,99.73
2024-01-07T01:24:15.823Z,99.73
2024-01-07T01:25:15.781Z,99.73
2024-01-07T01:26:15.701Z,99.73
2024-01-07T01:27:15.739Z,99.73
2024-01-07T01:28:15.735Z,99.73
2024-01-07T01:29:15.683Z,99.73
2024-01-07T01:30:15.718Z,99.73
2024-01-07T01:31:15.901Z,99.73
2024-01-07T01:32:15.649Z,99.63
2024-01-07T01:33:15.690Z,99.63
2024-01-07T01:34:15.797Z,99.63
2024-01-07T01:35:17.077Z,99.52
2024-01-07T01:36:15.626Z,99.52
2024-01-07T01:37:15.582Z,99.42
2024-01-07T01:38:15.558Z,99.42
2024-01-07T01:39:15.553Z,99.32
2024-01-07T01:40:15.671Z,99.21
2024-01-07T01:41:15.536Z,99.26
2024-01-07T01:42:15.509Z,99.11
2024-01-07T01:43:15.602Z,99.11
2024-01-07T01:44:15.498Z,99.15
2024-01-07T01:45:15.477Z,99.05
2024-01-07T01:46:15.572Z,99.05
2024-01-07T01:47:15.484Z,99.05
2024-01-07T01:48:15.533Z,98.94
2024-01-07T01:49:15.500Z,98.94
2024-01-07T01:50:15.423Z,98.94
2024-01-07T01:51:15.446Z,98.94
2024-01-07T01:52:15.526Z,98.84
2024-01-07T01:53:15.409Z,98.94
2024-01-07T01:54:16.067Z,98.84
2024-01-07T01:55:15.355Z,98.94
2024-01-07T01:56:16.852Z,98.94
2024-01-07T01:57:15.345Z,98.94
2024-01-07T01:58:15.355Z,98.94
2024-01-07T01:59:15.340Z,98.94
2024-01-07T02:00:15.338Z,98.94
2024-01-07T02:01:15.355Z,98.94
2024-01-07T02:02:15.280Z,99.05
2024-01-07T02:03:15.323Z,99.05
2024-01-07T02:04:15.297Z,99.05
2024-01-07T02:05:15.617Z,99.05
2024-01-07T02:06:15.231Z,98.94
2024-01-07T02:07:15.232Z,98.94
2024-01-07T02:08:15.251Z,98.94
2024-01-07T02:09:15.201Z,98.94
2024-01-07T02:10:15.206Z,98.94
2024-01-07T02:11:15.198Z,98.94
2024-01-07T02:12:15.168Z,98.84
2024-01-07T02:13:15.234Z,98.80
2024-01-07T02:14:15.215Z,98.80
2024-01-07T02:15:15.114Z,98.80
2024-01-07T02:16:15.139Z,98.69
2024-01-07T02:17:15.136Z,98.74
2024-01-07T02:18:15.113Z,98.63
2024-01-07T02:19:15.223Z,98.63
2024-01-07T02:20:15.106Z,98.63
2024-01-07T02:21:15.065Z,98.63
2024-01-07T02:22:15.075Z,98.53
2024-01-07T02:23:15.106Z,98.53
2024-01-07T02:24:15.057Z,98.53
2024-01-07T02:25:15.102Z,98.53
2024-01-07T02:26:15.025Z,98.43
2024-01-07T02:27:14.992Z,98.43
2024-01-07T02:28:15.033Z,98.53
2024-01-07T02:29:15.013Z,98.43
2024-01-07T02:30:15.029Z,98.43
2024-01-07T02:31:15.077Z,98.32
2024-01-07T02:32:14.958Z,98.22
2024-01-07T02:33:15.185Z,98.22
2024-01-07T02:34:15.819Z,98.11
2024-01-07T02:35:14.927Z,98.11
2024-01-07T02:36:14.899Z,98.11
2024-01-07T02:37:14.921Z,98.01
2024-01-07T02:38:14.866Z,98.01
2024-01-07T02:39:16.496Z,98.01
2024-01-07T02:40:14.873Z,98.01
2024-01-07T02:41:14.863Z,98.11
2024-01-07T02:42:14.853Z,98.11
2024-01-07T02:43:14.868Z,98.11
2024-01-07T02:44:14.817Z,98.01
2024-01-07T02:45:14.829Z,98.11
2024-01-07T02:46:14.811Z,98.11
2024-01-07T02:47:14.781Z,98.11
2024-01-07T02:48:14.816Z,98.11
2024-01-07T02:49:14.851Z,98.01
2024-01-07T02:50:14.753Z,98.11
2024-01-07T02:51:14.735Z,98.11
2024-01-07T02:52:14.762Z,98.11
2024-01-07T02:53:14.741Z,98.11
2024-01-07T02:54:14.721Z,98.11
2024-01-07T02:55:14.742Z,98.11
2024-01-07T02:56:14.784Z,98.11
2024-01-07T02:57:14.669Z,98.01
2024-01-07T02:58:14.725Z,98.01
2024-01-07T02:59:14.663Z,98.01
2024-01-07T03:00:14.719Z,98.01
2024-01-07T03:01:14.842Z,98.01
2024-01-07T03:02:14.640Z,98.01
2024-01-07T03:03:14.699Z,98.01
2024-01-07T03:04:14.714Z,98.01
2024-01-07T03:05:14.649Z,98.01
2024-01-07T03:06:14.572Z,98.01
2024-01-07T03:07:14.606Z,98.01
2024-01-07T03:08:14.568Z,98.01
2024-01-07T03:09:14.551Z,98.01
2024-01-07T03:10:14.674Z,98.01
2024-01-07T03:11:14.517Z,97.91
2024-01-07T03:12:14.522Z,97.91
2024-01-07T03:13:14.607Z,97.91
2024-01-07T03:14:14.505Z,97.91
2024-01-07T03:15:14.499Z,97.80
2024-01-07T03:16:14.553Z,97.80
2024-01-07T03:17:14.470Z,97.80
2024-01-07T03:18:14.538Z,97.70
2024-01-07T03:19:14.552Z,97.70
2024-01-07T03:20:14.432Z,97.70
2024-01-07T03:21:14.417Z,97.70
2024-01-07T03:22:14.465Z,97.80
2024-01-07T03:23:14.397Z,97.80
2024-01-07T03:24:14.386Z,97.80
2024-01-07T03:25:14.420Z,97.80
2024-01-07T03:26:14.396Z,97.80
2024-01-07T03:27:14.377Z,97.80
2024-01-07T03:28:14.393Z,97.80
2024-01-07T03:29:14.348Z,97.70
2024-01-07T03:30:14.339Z,97.70
2024-01-07T03:31:14.557Z,97.59
2024-01-07T03:32:14.287Z,97.49
2024-01-07T03:33:15.881Z,97.28
2024-01-07T03:34:14.349Z,97.28
2024-01-07T03:35:14.244Z,97.17
2024-01-07T03:36:14.299Z,97.07
2024-01-07T03:37:14.255Z,96.97
2024-01-07T03:38:14.214Z,97.01
2024-01-07T03:39:15.873Z,96.86
2024-01-07T03:40:14.331Z,96.91
2024-01-07T03:41:14.204Z,96.80
2024-01-07T03:42:14.200Z,96.80
2024-01-07T03:43:14.202Z,96.70
2024-01-07T03:44:14.245Z,96.70
2024-01-07T03:45:14.192Z,96.59
2024-01-07T03:46:14.131Z,96.59
2024-01-07T03:47:14.124Z,96.49
2024-01-07T03:48:14.231Z,96.49
2024-01-07T03:49:14.191Z,96.39
2024-01-07T03:50:14.154Z,96.39
2024-01-07T03:51:14.139Z,96.28
2024-01-07T03:52:14.136Z,96.28
2024-01-07T03:53:14.046Z,96.28
2024-01-07T03:54:16.110Z,96.28
2024-01-07T03:55:14.124Z,96.28
2024-01-07T03:56:14.099Z,96.18
2024-01-07T03:57:14.052Z,96.18
2024-01-07T03:58:14.099Z,96.18
2024-01-07T03:59:13.992Z,96.08
2024-01-07T04:00:13.993Z,96.08
2024-01-07T04:01:14.091Z,96.08
2024-01-07T04:02:13.985Z,96.08
2024-01-07T04:03:20.541Z,96.08
2024-01-07T04:04:13.974Z,95.97
2024-01-07T04:05:13.945Z,96.01
2024-01-07T04:06:14.161Z,95.91
2024-01-07T04:07:13.988Z,96.01
2024-01-07T04:08:13.895Z,96.01
2024-01-07T04:09:13.948Z,96.01
2024-01-07T04:10:13.906Z,96.01
2024-01-07T04:11:13.877Z,96.12
2024-01-07T04:12:14.778Z,96.12
2024-01-07T04:13:13.880Z,96.12
2024-01-07T04:14:14.606Z,96.12
2024-01-07T04:15:13.854Z,96.12
2024-01-07T04:16:13.970Z,96.12
2024-01-07T04:17:13.867Z,96.12
2024-01-07T04:18:14.592Z,96.12
2024-01-07T04:19:14.190Z,96.12
2024-01-07T04:20:13.765Z,96.12
2024-01-07T04:21:13.814Z,96.12
2024-01-07T04:22:13.810Z,96.22
2024-01-07T04:23:15.677Z,96.22
2024-01-07T04:24:13.757Z,96.33
2024-01-07T04:25:13.808Z,96.33
2024-01-07T04:26:16.322Z,96.22
2024-01-07T04:27:13.685Z,96.22
2024-01-07T04:28:14.629Z,96.22
2024-01-07T04:29:14.499Z,96.22
2024-01-07T04:30:13.706Z,96.33
2024-01-07T04:31:13.907Z,96.22
2024-01-07T04:32:13.623Z,96.22
2024-01-07T04:33:13.708Z,96.12
2024-01-07T04:34:14.185Z,96.12
2024-01-07T04:35:13.667Z,96.12
2024-01-07T04:36:13.597Z,96.01
2024-01-07T04:37:13.697Z,96.01
2024-01-07T04:38:13.564Z,95.91
2024-01-07T04:39:13.608Z,95.91
2024-01-07T04:40:13.656Z,95.81
2024-01-07T04:41:13.557Z,95.81
2024-01-07T04:42:13.862Z,95.70
2024-01-07T04:43:13.565Z,95.70
2024-01-07T04:44:13.524Z,95.70
2024-01-07T04:45:13.544Z,95.70
2024-01-07T04:46:14.436Z,95.81
2024-01-07T04:47:13.460Z,95.81
2024-01-07T04:48:13.517Z,95.81
2024-01-07T04:49:13.544Z,95.81
2024-01-07T04:50:13.463Z,95.70
2024-01-07T04:51:13.549Z,95.60
2024-01-07T04:52:13.467Z,95.60
2024-01-07T04:53:13.402Z,95.50
2024-01-07T04:54:13.384Z,95.39
2024-01-07T04:55:13.487Z,95.29
2024-01-07T04:56:13.375Z,95.33
2024-01-07T04:57:13.385Z,95.33
2024-01-07T04:58:13.515Z,95.29
2024-01-07T04:59:13.357Z,95.29
2024-01-07T05:00:13.414Z,95.23
2024-01-07T05:01:13.426Z,95.12
2024-01-07T05:02:15.311Z,95.12
2024-01-07T05:03:15.302Z,95.02
2024-01-07T05:04:13.385Z,95.02
2024-01-07T05:05:13.317Z,95.02
2024-01-07T05:06:13.335Z,95.12
2024-01-07T05:07:13.537Z,95.23
2024-01-07T05:08:15.761Z,95.23
2024-01-07T05:09:13.218Z,95.33
2024-01-07T05:10:13.408Z,95.29
2024-01-07T05:11:13.213Z,95.18
2024-01-07T05:12:13.231Z,95.12
2024-01-07T05:13:14.761Z,95.08
2024-01-07T05:14:13.166Z,95.02
2024-01-07T05:15:13.190Z,95.02
2024-01-07T05:16:13.210Z,95.02
2024-01-07T05:17:13.164Z,94.92
2024-01-07T05:18:13.562Z,94.81
2024-01-07T05:19:13.223Z,94.70
2024-01-07T05:20:13.226Z,94.70
2024-01-07T05:21:14.773Z,94.70
2024-01-07T05:22:13.186Z,94.70
2024-01-07T05:23:13.097Z,94.70
2024-01-07T05:24:13.072Z,94.70
2024-01-07T05:25:13.263Z,94.81
2024-01-07T05:26:13.077Z,94.81
2024-01-07T05:27:13.021Z,94.81
2024-01-07T05:28:13.155Z,94.81
2024-01-07T05:29:13.013Z,94.81
2024-01-07T05:30:13.062Z,94.92
2024-01-07T05:31:14.048Z,94.92
2024-01-07T05:32:12.984Z,94.81
2024-01-07T05:33:13.095Z,94.81
2024-01-07T05:34:13.104Z,94.81
2024-01-07T05:35:12.977Z,94.81
2024-01-07T05:36:12.928Z,94.81
2024-01-07T05:37:13.013Z,94.81
2024-01-07T05:38:12.923Z,94.92
2024-01-07T05:39:13.503Z,94.92
2024-01-07T05:40:12.949Z,94.92
2024-01-07T05:41:12.927Z,94.92
2024-01-07T05:42:12.853Z,94.92
2024-01-07T05:43:12.899Z,94.92
2024-01-07T05:44:12.823Z,95.02
2024-01-07T05:45:12.875Z,95.12
2024-01-07T05:46:12.890Z,95.23
2024-01-07T05:47:12.824Z,95.33
2024-01-07T05:48:12.833Z,95.43
2024-01-07T05:49:12.869Z,95.43
2024-01-07T05:50:13.741Z,95.43
2024-01-07T05:51:12.801Z,95.43
2024-01-07T05:52:12.782Z,95.43
2024-01-07T05:53:12.825Z,95.43
2024-01-07T05:54:13.404Z,95.33
2024-01-07T05:55:13.004Z,95.33
2024-01-07T05:56:14.672Z,95.33
2024-01-07T05:57:13.585Z,95.33
2024-01-07T05:58:12.715Z,95.33
2024-01-07T05:59:12.781Z,95.33
2024-01-07T06:00:12.800Z,95.33
2024-01-07T06:01:12.746Z,95.33
2024-01-07T06:02:13.751Z,95.43
2024-01-07T06:03:12.716Z,95.43
2024-01-07T06:04:12.740Z,95.43
2024-01-07T06:05:13.029Z,95.54
2024-01-07T06:06:13.679Z,95.54
2024-01-07T06:07:12.780Z,95.54
2024-01-07T06:08:12.928Z,95.54
2024-01-07T06:09:12.627Z,95.43
2024-01-07T06:10:12.719Z,95.23
2024-01-07T06:11:13.358Z,95.12
2024-01-07T06:12:12.607Z,95.02
2024-01-07T06:13:12.661Z,94.92
2024-01-07T06:14:14.576Z,94.70
2024-01-07T06:15:12.531Z,94.70
2024-01-07T06:16:12.590Z,94.70
2024-01-07T06:17:12.475Z,94.60
2024-01-07T06:18:13.557Z,94.60
2024-01-07T06:19:12.542Z,94.60
2024-01-07T06:20:12.536Z,94.60
2024-01-07T06:21:12.486Z,94.60
2024-01-07T06:22:14.457Z,94.60
2024-01-07T06:23:12.414Z,94.70
2024-01-07T06:24:12.436Z,94.70
2024-01-07T06:25:12.581Z,94.70
2024-01-07T06:26:12.376Z,94.70
2024-01-07T06:27:12.386Z,94.70
2024-01-07T06:28:12.485Z,94.70
2024-01-07T06:29:12.479Z,94.70
2024-01-07T06:30:13.557Z,94.92
2024-01-07T06:31:12.429Z,95.02
2024-01-07T06:32:12.588Z,95.12
2024-01-07T06:33:12.376Z,95.23
2024-01-07T06:34:12.354Z,95.23
2024-01-07T06:35:12.297Z,95.43
2024-01-07T06:36:12.255Z,95.43
2024-01-07T06:37:12.332Z,95.54
2024-01-07T06:38:12.293Z,95.43
2024-01-07T06:39:12.316Z,95.43
2024-01-07T06:40:12.298Z,95.33
2024-01-07T06:41:12.274Z,95.33
2024-01-07T06:42:12.217Z,95.33
2024-01-07T06:43:12.225Z,95.23
2024-01-07T06:44:12.193Z,95.23
2024-01-07T06:45:12.167Z,95.02
2024-01-07T06:46:12.318Z,94.92
2024-01-07T06:47:12.322Z,94.81
2024-01-07T06:48:12.361Z,94.70
2024-01-07T06:49:12.233Z,94.60
2024-01-07T06:50:12.404Z,94.39
2024-01-07T06:51:13.003Z,94.12
2024-01-07T06:52:12.189Z,94.02
2024-01-07T06:53:12.104Z,94.02
2024-01-07T06:54:14.874Z,94.02
2024-01-07T06:55:12.222Z,94.02
2024-01-07T06:56:12.067Z,93.91
2024-01-07T06:57:12.025Z,93.87
2024-01-07T06:58:12.207Z,93.77
2024-01-07T06:59:12.013Z,93.77
2024-01-07T07:00:12.110Z,93.66
2024-01-07T07:01:12.133Z,93.66
2024-01-07T07:02:12.084Z,93.66
2024-01-07T07:03:13.970Z,93.66
2024-01-07T07:04:14.188Z,93.66
2024-01-07T07:05:13.935Z,93.56
2024-01-07T07:06:11.965Z,93.56
2024-01-07T07:07:12.776Z,93.46
2024-01-07T07:08:13.892Z,93.46
2024-01-07T07:09:13.347Z,93.35
2024-01-07T07:10:13.500Z,93.40
2024-01-07T07:11:11.976Z,93.40
2024-01-07T07:12:13.837Z,93.40
2024-01-07T07:13:13.877Z,93.35
2024-01-07T07:14:13.823Z,93.24
2024-01-07T07:15:13.808Z,93.24
2024-01-07T07:16:12.789Z,93.14
2024-01-07T07:17:13.771Z,93.04
2024-01-07T07:18:12.360Z,93.04
2024-01-07T07:19:13.814Z,93.04
2024-01-07T07:20:13.906Z,93.04
2024-01-07T07:21:12.587Z,93.04
2024-01-07T07:22:13.857Z,93.04
2024-01-07T07:23:11.757Z,93.04
2024-01-07T07:24:12.143Z,93.14
2024-01-07T07:25:12.729Z,93.04
2024-01-07T07:26:12.375Z,92.93
2024-01-07T07:27:11.710Z,92.72
2024-01-07T07:28:11.872Z,92.52
2024-01-07T07:29:13.679Z,92.41
2024-01-07T07:30:12.188Z,92.31
2024-01-07T07:31:11.734Z,92.31
2024-01-07T07:32:13.788Z,92.31
2024-01-07T07:33:13.631Z,92.31
2024-01-07T07:34:11.727Z,92.41
2024-01-07T07:35:11.771Z,92.52
2024-01-07T07:36:11.619Z,92.52
2024-01-07T07:37:11.898Z,92.41
2024-01-07T07:38:11.665Z,92.41
2024-01-07T07:39:12.368Z,92.31
2024-01-07T07:40:11.653Z,92.31
2024-01-07T07:41:11.581Z,92.41
2024-01-07T07:42:11.576Z,92.41
2024-01-07T07:43:11.568Z,92.21
2024-01-07T07:44:11.576Z,92.00
2024-01-07T07:45:11.570Z,91.93
2024-01-07T07:46:11.551Z,91.93
2024-01-07T07:47:11.482Z,91.93
2024-01-07T07:48:13.491Z,92.03
2024-01-07T07:49:11.530Z,91.93
2024-01-07T07:50:11.695Z,91.93
2024-01-07T07:51:11.439Z,91.93
2024-01-07T07:52:11.557Z,92.03
2024-01-07T07:53:11.448Z,92.03
2024-01-07T07:54:11.415Z,92.03
2024-01-07T07:55:11.457Z,91.93
2024-01-07T07:56:13.353Z,91.83
2024-01-07T07:57:11.403Z,91.72
2024-01-07T07:58:11.470Z,91.72
2024-01-07T07:59:11.441Z,91.72
2024-01-07T08:00:13.050Z,91.62
2024-01-07T08:01:12.407Z,91.62
2024-01-07T08:02:11.452Z,91.62
2024-01-07T08:03:11.382Z,91.62
2024-01-07T08:04:11.417Z,91.52
2024-01-07T08:05:11.350Z,91.41
2024-01-07T08:06:12.558Z,91.41
2024-01-07T08:07:11.307Z,91.41
2024-01-07T08:08:11.297Z,91.41
2024-01-07T08:09:11.258Z,91.20
2024-01-07T08:10:11.314Z,91.10
2024-01-07T08:11:11.214Z,91.20
2024-01-07T08:12:11.250Z,91.10
2024-01-07T08:13:11.232Z,91.10
2024-01-07T08:14:11.197Z,91.10
2024-01-07T08:15:11.279Z,91.10
2024-01-07T08:16:11.401Z,91.00
2024-01-07T08:17:11.149Z,90.89
2024-01-07T08:18:11.290Z,90.89
2024-01-07T08:19:11.247Z,90.89
2024-01-07T08:20:13.226Z,90.89
2024-01-07T08:21:11.084Z,90.89
2024-01-07T08:22:11.334Z,90.89
2024-01-07T08:23:11.621Z,90.79
2024-01-07T08:24:12.645Z,90.68
2024-01-07T08:25:11.175Z,90.68
2024-01-07T08:26:11.087Z,90.68
2024-01-07T08:27:11.082Z,90.68
2024-01-07T08:28:11.109Z,90.68
2024-01-07T08:29:11.001Z,90.79
2024-01-07T08:30:11.138Z,90.79
2024-01-07T08:31:11.176Z,90.89
2024-01-07T08:32:11.054Z,91.00
2024-01-07T08:33:11.044Z,91.10
2024-01-07T08:34:13.101Z,91.20
2024-01-07T08:35:10.983Z,91.20
2024-01-07T08:36:11.101Z,91.31
2024-01-07T08:37:13.541Z,91.41
2024-01-07T08:38:10.925Z,91.52
2024-01-07T08:39:10.942Z,91.41
2024-01-07T08:40:12.504Z,91.20
2024-01-07T08:41:11.275Z,91.25
2024-01-07T08:42:11.002Z,91.35
2024-01-07T08:43:10.921Z,91.46
2024-01-07T08:44:10.895Z,91.66
2024-01-07T08:45:10.840Z,91.87
2024-01-07T08:46:10.852Z,91.97
2024-01-07T08:47:10.816Z,92.08
2024-01-07T08:48:10.895Z,92.18
2024-01-07T08:49:10.933Z,92.18
2024-01-07T08:50:10.948Z,92.29
2024-01-07T08:51:10.800Z,92.29
2024-01-07T08:52:10.820Z,92.29
2024-01-07T08:53:12.768Z,92.18
2024-01-07T08:54:10.757Z,92.18
2024-01-07T08:55:10.854Z,92.18
2024-01-07T08:56:10.748Z,92.29
2024-01-07T08:57:10.713Z,92.29
2024-01-07T08:58:10.735Z,92.29
2024-01-07T08:59:10.699Z,92.29
2024-01-07T09:00:10.734Z,92.29
2024-01-07T09:01:10.764Z,92.29
2024-01-07T09:02:12.238Z,92.18
2024-01-07T09:03:10.674Z,92.18
2024-01-07T09:04:10.741Z,92.18
2024-01-07T09:05:10.709Z,92.18
2024-01-07T09:06:11.594Z,92.03
2024-01-07T09:07:10.618Z,91.93
2024-01-07T09:08:10.598Z,91.83
2024-01-07T09:09:10.627Z,91.62
2024-01-07T09:10:10.700Z,91.20
2024-01-07T09:11:10.546Z,90.68
2024-01-07T09:12:10.570Z,90.37
2024-01-07T09:13:10.604Z,90.16
2024-01-07T09:14:10.533Z,90.10
2024-01-07T09:15:10.556Z,90.10
2024-01-07T09:16:10.628Z,90.00
2024-01-07T09:17:10.513Z,90.00
2024-01-07T09:18:10.653Z,89.95
2024-01-07T09:19:12.763Z,89.85
2024-01-07T09:20:10.520Z,89.75
2024-01-07T09:21:10.521Z,89.43
2024-01-07T09:22:10.669Z,89.37
2024-01-07T09:23:10.453Z,89.26
2024-01-07T09:24:10.410Z,89.26
2024-01-07T09:25:10.504Z,89.22
2024-01-07T09:26:11.901Z,89.32
2024-01-07T09:27:10.382Z,89.32
2024-01-07T09:28:11.415Z,89.22
2024-01-07T09:29:10.398Z,89.22
2024-01-07T09:30:10.372Z,89.22
2024-01-07T09:31:10.428Z,89.12
2024-01-07T09:32:10.361Z,89.12
2024-01-07T09:33:10.379Z,89.12
2024-01-07T09:34:10.446Z,89.22
2024-01-07T09:35:10.457Z,89.22
2024-01-07T09:36:20.702Z,89.22
2024-01-07T09:37:14.547Z,89.22
2024-01-07T09:38:12.424Z,89.22
2024-01-07T09:39:10.298Z,89.22
2024-01-07T09:40:10.308Z,89.32
2024-01-07T09:41:10.349Z,89.22
2024-01-07T09:42:10.248Z,89.22
2024-01-07T09:43:10.263Z,89.12
2024-01-07T09:44:10.231Z,89.01
2024-01-07T09:45:10.219Z,88.91
2024-01-07T09:46:10.314Z,88.91
2024-01-07T09:47:10.154Z,88.75
2024-01-07T09:48:10.435Z,88.64
2024-01-07T09:49:11.232Z,88.75
2024-01-07T09:50:10.130Z,88.75
2024-01-07T09:51:10.817Z,88.75
2024-01-07T09:52:12.072Z,88.75
2024-01-07T09:53:10.102Z,88.85
2024-01-07T09:54:10.109Z,89.16
2024-01-07T09:55:11.606Z,89.12
2024-01-07T09:56:10.076Z,89.12
2024-01-07T09:57:10.078Z,89.01
2024-01-07T09:58:10.074Z,88.81
2024-01-07T09:59:10.058Z,88.81
2024-01-07T10:00:11.517Z,88.91
2024-01-07T10:01:10.196Z,88.91
2024-01-07T10:02:10.153Z,88.91
2024-01-07T10:03:10.066Z,88.91
2024-01-07T10:04:11.060Z,88.91
2024-01-07T10:05:09.950Z,89.01
2024-01-07T10:06:10.116Z,88.91
2024-01-07T10:07:09.994Z,88.70
2024-01-07T10:08:10.038Z,88.60
2024-01-07T10:09:10.732Z,88.49
2024-01-07T10:10:10.017Z,88.49
2024-01-07T10:11:09.914Z,88.39
2024-01-07T10:12:10.918Z,88.39
2024-01-07T10:13:10.070Z,88.29
2024-01-07T10:14:10.186Z,88.29
2024-01-07T10:15:09.926Z,88.29
2024-01-07T10:16:11.009Z,88.49
2024-01-07T10:17:09.833Z,88.56
2024-01-07T10:18:09.882Z,88.45
2024-01-07T10:19:09.899Z,88.18
2024-01-07T10:20:09.986Z,88.24
2024-01-07T10:21:09.774Z,88.35
2024-01-07T10:22:09.829Z,88.45
2024-01-07T10:23:09.790Z,88.45
2024-01-07T10:24:09.792Z,88.56
2024-01-07T10:25:10.172Z,88.56
2024-01-07T10:26:15.852Z,88.45
2024-01-07T10:27:10.910Z,88.35
2024-01-07T10:28:09.889Z,88.14
2024-01-07T10:29:09.797Z,88.14
2024-01-07T10:30:10.079Z,87.93
2024-01-07T10:31:09.881Z,87.83
2024-01-07T10:32:09.688Z,87.73
2024-01-07T10:33:09.719Z,87.73
2024-01-07T10:34:09.733Z,87.73
2024-01-07T10:35:09.760Z,87.62
2024-01-07T10:36:09.692Z,87.52
2024-01-07T10:37:09.981Z,87.52
2024-01-07T10:38:09.709Z,87.52
2024-01-07T10:39:09.668Z,87.52
2024-01-07T10:40:09.641Z,87.52
2024-01-07T10:41:09.672Z,87.41
2024-01-07T10:42:09.741Z,87.41
2024-01-07T10:43:09.864Z,87.41
2024-01-07T10:44:09.563Z,87.30
2024-01-07T10:45:09.585Z,87.06
2024-01-07T10:46:09.722Z,86.96
2024-01-07T10:47:09.703Z,86.85
2024-01-07T10:48:09.583Z,86.85
2024-01-07T10:49:09.542Z,86.75
2024-01-07T10:50:09.647Z,86.65
2024-01-07T10:51:09.496Z,86.65
2024-01-07T10:52:09.733Z,86.54
2024-01-07T10:53:09.515Z,86.33
2024-01-07T10:54:09.403Z,86.22
2024-01-07T10:55:09.450Z,86.22
2024-01-07T10:56:09.390Z,86.12
2024-01-07T10:57:09.412Z,85.91
2024-01-07T10:58:09.441Z,85.96
2024-01-07T10:59:09.507Z,85.85
2024-01-07T11:00:10.211Z,85.74
2024-01-07T11:01:09.423Z,85.64
2024-01-07T11:02:09.516Z,85.96
2024-01-07T11:03:09.365Z,86.06
2024-01-07T11:04:09.419Z,86.06
2024-01-07T11:05:10.134Z,85.64
2024-01-07T11:06:09.336Z,85.50
2024-01-07T11:07:11.357Z,85.22
2024-01-07T11:08:09.274Z,84.81
2024-01-07T11:09:10.836Z,84.50
2024-01-07T11:10:09.295Z,84.50
2024-01-07T11:11:09.285Z,84.60
2024-01-07T11:12:09.253Z,84.60
2024-01-07T11:13:09.267Z,84.50
2024-01-07T11:14:09.186Z,84.18
2024-01-07T11:15:09.186Z,84.18
2024-01-07T11:16:09.259Z,84.18
2024-01-07T11:17:09.226Z,83.97
2024-01-07T11:18:09.256Z,83.76
2024-01-07T11:19:09.286Z,83.87
2024-01-07T11:20:09.192Z,83.87
2024-01-07T11:21:09.134Z,83.76
2024-01-07T11:22:10.668Z,83.76
2024-01-07T11:23:09.146Z,83.76
2024-01-07T11:24:09.231Z,83.97
2024-01-07T11:25:09.100Z,84.08
2024-01-07T11:26:09.064Z,83.97
2024-01-07T11:27:09.236Z,83.76
2024-01-07T11:28:10.644Z,83.87
2024-01-07T11:29:09.031Z,83.66
2024-01-07T11:30:09.218Z,83.14
2024-01-07T11:31:09.364Z,83.14
2024-01-07T11:32:09.014Z,83.04
2024-01-07T11:33:09.123Z,83.14
2024-01-07T11:34:09.904Z,83.25
2024-01-07T11:35:09.193Z,83.04
2024-01-07T11:36:09.021Z,82.72
2024-01-07T11:37:09.026Z,82.72
2024-01-07T11:38:09.598Z,82.82
2024-01-07T11:39:08.918Z,82.93
2024-01-07T11:40:08.971Z,83.04
2024-01-07T11:41:09.608Z,82.72
2024-01-07T11:42:08.918Z,82.72
2024-01-07T11:43:09.264Z,82.72
2024-01-07T11:44:08.922Z,82.72
2024-01-07T11:45:08.863Z,82.72
2024-01-07T11:46:08.921Z,82.72
2024-01-07T11:47:10.582Z,82.72
2024-01-07T11:48:08.920Z,82.58
2024-01-07T11:49:08.968Z,82.41
2024-01-07T11:50:09.681Z,82.20
2024-01-07T11:51:08.803Z,81.99
2024-01-07T11:52:08.836Z,82.10
2024-01-07T11:53:10.752Z,81.99
2024-01-07T11:54:08.793Z,81.89
2024-01-07T11:55:08.885Z,81.68
2024-01-07T11:56:09.305Z,81.47
2024-01-07T11:57:08.767Z,81.68
2024-01-07T11:58:08.754Z,81.37
2024-01-07T11:59:09.603Z,81.16
2024-01-07T12:00:08.723Z,80.85
2024-01-07T12:01:09.682Z,80.95
2024-01-07T12:02:08.766Z,81.16
2024-01-07T12:03:08.740Z,81.05
2024-01-07T12:04:09.575Z,80.95
2024-01-07T12:05:10.631Z,80.85
2024-01-07T12:06:10.593Z,80.85
2024-01-07T12:07:08.764Z,80.26
2024-01-07T12:08:08.591Z,80.36
2024-01-07T12:09:08.664Z,80.36
2024-01-07T12:10:08.677Z,80.36
2024-01-07T12:11:08.649Z,80.26
2024-01-07T12:12:10.517Z,80.36
2024-01-07T12:13:10.570Z,80.26
2024-01-07T12:14:10.496Z,80.16
2024-01-07T12:15:09.384Z,79.94
2024-01-07T12:16:08.596Z,79.84
2024-01-07T12:17:13.633Z,79.63
2024-01-07T12:18:08.780Z,79.53
2024-01-07T12:19:10.548Z,79.53
2024-01-07T12:20:10.427Z,79.63
2024-01-07T12:21:09.305Z,79.43
2024-01-07T12:22:10.449Z,79.32
2024-01-07T12:23:10.415Z,79.32
2024-01-07T12:24:10.404Z,79.32
2024-01-07T12:25:08.525Z,79.32
2024-01-07T12:26:10.452Z,78.69
2024-01-07T12:27:09.226Z,78.28
2024-01-07T12:28:10.367Z,78.28
2024-01-07T12:29:09.167Z,77.97
2024-01-07T12:30:08.645Z,77.86
2024-01-07T12:31:10.423Z,77.86
2024-01-07T12:32:08.399Z,77.80
2024-01-07T12:33:08.674Z,78.00
2024-01-07T12:34:10.345Z,78.52
2024-01-07T12:35:08.629Z,78.31
2024-01-07T12:36:08.641Z,78.21
2024-01-07T12:37:10.288Z,78.28
2024-01-07T12:38:08.297Z,78.49
2024-01-07T12:39:08.743Z,78.38
2024-01-07T12:40:10.062Z,77.90
2024-01-07T12:41:09.054Z,77.48
2024-01-07T12:42:08.328Z,77.17
2024-01-07T12:43:08.860Z,77.58
2024-01-07T12:44:09.020Z,77.80
2024-01-07T12:45:08.218Z,77.90
2024-01-07T12:46:08.615Z,78.00
2024-01-07T12:47:09.661Z,78.21
2024-01-07T12:48:10.227Z,78.21
2024-01-07T12:49:08.929Z,78.00
2024-01-07T12:50:10.112Z,77.86
2024-01-07T12:51:08.144Z,77.86
2024-01-07T12:52:08.311Z,77.86